sensor_id;sensor_type;location;lat;lon;timestamp;P1;durP1;ratioP1;P2;durP2;ratioP2
1753;SDS011;58380;48.312;9.246;2023-11-19T07:34:30;9.98;;;8.20;;
1753;SDS011;58380;48.312;9.246;2023-11-19T07:37:30;11.65;;;9.15;;
1753;SDS011;58380;48.312;9.246;2023-11-19T07:40:31;10.77;;;7.90;;
1753;SDS011;58380;48.312;9.246;2023-11-19T07:43:31;9.68;;;6.95;;
1753;SDS011;58380;48.312;9.246;2023-11-19T07:46:32;9.25;;;7.40;;
1753;SDS011;58380;48.312;9.246;2023-11-19T07:49:32;7.53;;;6.60;;
1753;SDS011;58380;48.312;9.246;2023-11-19T07:52:33;7.75;;;6.25;;
1753;SDS011;58380;48.312;9.246;2023-11-19T07:55:34;7.30;;;6.03;;
1753;SDS011;58380;48.312;9.246;2023-11-19T07:58:34;9.95;;;7.93;;
1753;SDS011;58380;48.312;9.246;2023-11-19T08:01:35;11.45;;;8.10;;
1753;SDS011;58380;48.312;9.246;2023-11-19T08:04:35;10.32;;;7.50;;
1753;SDS011;58380;48.312;9.246;2023-11-19T08:07:36;16.63;;;10.55;;
1753;SDS011;58380;48.312;9.246;2023-11-19T08:10:36;12.82;;;8.95;;
1753;SDS011;58380;48.312;9.246;2023-11-19T08:13:37;11.65;;;8.25;;
1753;SDS011;58380;48.312;9.246;2023-11-19T08:16:38;9.35;;;6.50;;
1753;SDS011;58380;48.312;9.246;2023-11-19T08:19:39;12.57;;;7.78;;
1753;SDS011;58380;48.312;9.246;2023-11-19T08:22:40;6.95;;;5.72;;
1753;SDS011;58380;48.312;9.246;2023-11-19T08:25:40;6.45;;;5.57;;
1753;SDS011;58380;48.312;9.246;2023-11-19T08:28:41;7.47;;;5.95;;
1753;SDS011;58380;48.312;9.246;2023-11-19T08:31:41;7.97;;;5.43;;
1753;SDS011;58380;48.312;9.246;2023-11-19T08:34:42;5.35;;;4.22;;
1753;SDS011;58380;48.312;9.246;2023-11-19T08:37:42;5.97;;;4.72;;
1753;SDS011;58380;48.312;9.246;2023-11-19T08:40:45;5.55;;;4.20;;
1753;SDS011;58380;48.312;9.246;2023-11-19T08:43:45;5.00;;;3.85;;
1753;SDS011;58380;48.312;9.246;2023-11-19T08:46:49;4.88;;;4.13;;
1753;SDS011;58380;48.312;9.246;2023-11-19T08:49:53;6.15;;;3.63;;
1753;SDS011;58380;48.312;9.246;2023-11-19T08:52:55;4.75;;;3.60;;
1753;SDS011;58380;48.312;9.246;2023-11-19T08:55:56;5.45;;;4.40;;
1753;SDS011;58380;48.312;9.246;2023-11-19T08:58:56;6.90;;;5.15;;
1753;SDS011;58380;48.312;9.246;2023-11-19T09:01:57;7.82;;;5.47;;
1753;SDS011;58380;48.312;9.246;2023-11-19T09:04:57;6.97;;;4.35;;
1753;SDS011;58380;48.312;9.246;2023-11-19T09:07:58;12.23;;;4.22;;
1753;SDS011;58380;48.312;9.246;2023-11-19T09:10:58;5.10;;;4.15;;
1753;SDS011;58380;48.312;9.246;2023-11-19T09:13:59;6.47;;;4.50;;
1753;SDS011;58380;48.312;9.246;2023-11-19T09:16:59;5.00;;;3.83;;
1753;SDS011;58380;48.312;9.246;2023-11-19T09:20:00;4.97;;;3.72;;
1753;SDS011;58380;48.312;9.246;2023-11-19T09:23:00;8.98;;;6.50;;
1753;SDS011;58380;48.312;9.246;2023-11-19T09:26:01;8.60;;;5.35;;
1753;SDS011;58380;48.312;9.246;2023-11-19T09:29:01;5.88;;;3.97;;
1753;SDS011;58380;48.312;9.246;2023-11-19T09:32:02;4.65;;;3.67;;
1753;SDS011;58380;48.312;9.246;2023-11-19T09:35:03;6.07;;;4.47;;
1753;SDS011;58380;48.312;9.246;2023-11-19T09:38:04;6.53;;;3.92;;
1753;SDS011;58380;48.312;9.246;2023-11-19T09:41:05;7.97;;;5.47;;
1753;SDS011;58380;48.312;9.246;2023-11-19T09:44:09;5.72;;;4.20;;
1753;SDS011;58380;48.312;9.246;2023-11-19T09:47:11;8.05;;;6.35;;
1753;SDS011;58380;48.312;9.246;2023-11-19T09:50:15;5.80;;;4.57;;
1753;SDS011;58380;48.312;9.246;2023-11-19T09:53:21;7.40;;;5.50;;
1753;SDS011;58380;48.312;9.246;2023-11-19T09:56:21;4.05;;;3.00;;
1753;SDS011;58380;48.312;9.246;2023-11-19T09:59:23;5.43;;;4.53;;
1753;SDS011;58380;48.312;9.246;2023-11-19T10:02:23;4.70;;;3.72;;
1753;SDS011;58380;48.312;9.246;2023-11-19T10:05:29;4.20;;;2.60;;
1753;SDS011;58380;48.312;9.246;2023-11-19T10:08:29;5.10;;;2.85;;
1753;SDS011;58380;48.312;9.246;2023-11-19T10:11:30;4.25;;;3.08;;
1753;SDS011;58380;48.312;9.246;2023-11-19T10:14:30;5.03;;;2.47;;
1753;SDS011;58380;48.312;9.246;2023-11-19T10:17:34;4.85;;;3.50;;
1753;SDS011;58380;48.312;9.246;2023-11-19T10:20:38;11.50;;;5.70;;
1753;SDS011;58380;48.312;9.246;2023-11-19T10:23:48;8.73;;;4.18;;
1753;SDS011;58380;48.312;9.246;2023-11-19T10:26:54;4.40;;;2.38;;
1753;SDS011;58380;48.312;9.246;2023-11-19T10:29:59;5.15;;;2.42;;
1753;SDS011;58380;48.312;9.246;2023-11-19T10:33:04;4.32;;;2.72;;
1753;SDS011;58380;48.312;9.246;2023-11-19T10:36:09;4.18;;;2.80;;
1753;SDS011;58380;48.312;9.246;2023-11-19T10:39:10;2.70;;;2.00;;
1753;SDS011;58380;48.312;9.246;2023-11-19T10:42:16;3.90;;;2.53;;
1753;SDS011;58380;48.312;9.246;2023-11-19T10:45:23;3.95;;;2.97;;
1753;SDS011;58380;48.312;9.246;2023-11-19T10:48:23;5.50;;;3.85;;
1753;SDS011;58380;48.312;9.246;2023-11-19T10:51:25;4.38;;;2.80;;
1753;SDS011;58380;48.312;9.246;2023-11-19T10:54:25;2.95;;;1.75;;
1753;SDS011;58380;48.312;9.246;2023-11-19T10:57:26;13.85;;;4.68;;
1753;SDS011;58380;48.312;9.246;2023-11-19T11:03:40;5.30;;;1.90;;
1753;SDS011;58380;48.312;9.246;2023-11-19T11:06:41;2.13;;;1.40;;
1753;SDS011;58380;48.312;9.246;2023-11-19T11:09:42;5.45;;;3.17;;
1753;SDS011;58380;48.312;9.246;2023-11-19T11:12:46;5.15;;;3.22;;
1753;SDS011;58380;48.312;9.246;2023-11-19T11:15:50;2.92;;;2.00;;
1753;SDS011;58380;48.312;9.246;2023-11-19T11:18:51;4.25;;;2.80;;
1753;SDS011;58380;48.312;9.246;2023-11-19T11:21:53;6.40;;;2.88;;
1753;SDS011;58380;48.312;9.246;2023-11-19T11:25:10;2.55;;;1.38;;
1753;SDS011;58380;48.312;9.246;2023-11-19T11:38:41;1.85;;;1.20;;
1753;SDS011;58380;48.312;9.246;2023-11-19T11:41:42;2.10;;;1.30;;
1753;SDS011;58380;48.312;9.246;2023-11-19T11:44:58;3.40;;;1.13;;
1753;SDS011;58380;48.312;9.246;2023-11-19T11:48:09;2.67;;;1.20;;
1753;SDS011;58380;48.312;9.246;2023-11-19T11:51:11;2.55;;;1.27;;
1753;SDS011;58380;48.312;9.246;2023-11-19T11:57:18;2.40;;;1.50;;
1753;SDS011;58380;48.312;9.246;2023-11-19T12:00:38;3.00;;;1.35;;
1753;SDS011;58380;48.312;9.246;2023-11-19T12:03:40;2.45;;;1.08;;
1753;SDS011;58380;48.312;9.246;2023-11-19T12:06:41;3.83;;;1.55;;
1753;SDS011;58380;48.312;9.246;2023-11-19T12:09:41;5.82;;;1.70;;
1753;SDS011;58380;48.312;9.246;2023-11-19T12:12:47;5.55;;;2.53;;
1753;SDS011;58380;48.312;9.246;2023-11-19T12:18:57;1.60;;;0.70;;
1753;SDS011;58380;48.312;9.246;2023-11-19T12:22:10;1.17;;;0.57;;
1753;SDS011;58380;48.312;9.246;2023-11-19T12:25:11;2.15;;;1.00;;
1753;SDS011;58380;48.312;9.246;2023-11-19T12:28:13;0.80;;;0.47;;
1753;SDS011;58380;48.312;9.246;2023-11-19T12:31:18;1.00;;;0.55;;
1753;SDS011;58380;48.312;9.246;2023-11-19T12:34:19;0.82;;;0.47;;
1753;SDS011;58380;48.312;9.246;2023-11-19T12:37:19;1.25;;;0.60;;
1753;SDS011;58380;48.312;9.246;2023-11-19T12:40:21;0.63;;;0.40;;
1753;SDS011;58380;48.312;9.246;2023-11-19T12:43:24;2.03;;;0.40;;
1753;SDS011;58380;48.312;9.246;2023-11-19T12:46:24;1.05;;;0.52;;
1753;SDS011;58380;48.312;9.246;2023-11-19T12:49:27;1.75;;;0.80;;
1753;SDS011;58380;48.312;9.246;2023-11-19T12:52:28;2.08;;;0.80;;
1753;SDS011;58380;48.312;9.246;2023-11-19T12:55:28;1.23;;;0.40;;
1753;SDS011;58380;48.312;9.246;2023-11-19T13:01:36;1.15;;;0.50;;
1753;SDS011;58380;48.312;9.246;2023-11-19T13:04:38;2.05;;;0.70;;
1753;SDS011;58380;48.312;9.246;2023-11-19T13:07:39;0.75;;;0.40;;
1753;SDS011;58380;48.312;9.246;2023-11-19T13:13:54;1.00;;;0.45;;
1753;SDS011;58380;48.312;9.246;2023-11-19T13:16:59;0.73;;;0.30;;
1753;SDS011;58380;48.312;9.246;2023-11-19T13:20:03;0.57;;;0.22;;
1753;SDS011;58380;48.312;9.246;2023-11-19T13:23:04;1.98;;;0.50;;
1753;SDS011;58380;48.312;9.246;2023-11-19T13:26:07;2.00;;;0.60;;
1753;SDS011;58380;48.312;9.246;2023-11-19T13:29:07;1.98;;;0.35;;
1753;SDS011;58380;48.312;9.246;2023-11-19T13:32:08;0.28;;;0.20;;
1753;SDS011;58380;48.312;9.246;2023-11-19T13:35:09;0.52;;;0.40;;
1753;SDS011;58380;48.312;9.246;2023-11-19T13:38:09;0.35;;;0.20;;
1753;SDS011;58380;48.312;9.246;2023-11-19T13:41:10;0.98;;;0.28;;
1753;SDS011;58380;48.312;9.246;2023-11-19T13:44:12;1.25;;;0.30;;
1753;SDS011;58380;48.312;9.246;2023-11-19T13:47:12;1.75;;;0.30;;
1753;SDS011;58380;48.312;9.246;2023-11-19T13:50:14;0.85;;;0.30;;
1753;SDS011;58380;48.312;9.246;2023-11-19T13:53:17;0.50;;;0.25;;
1753;SDS011;58380;48.312;9.246;2023-11-19T13:56:17;0.45;;;0.32;;
1753;SDS011;58380;48.312;9.246;2023-11-19T13:59:18;2.60;;;0.77;;
1753;SDS011;58380;48.312;9.246;2023-11-19T14:02:18;0.90;;;0.35;;
1753;SDS011;58380;48.312;9.246;2023-11-19T14:05:18;0.32;;;0.22;;
1753;SDS011;58380;48.312;9.246;2023-11-19T14:08:19;0.70;;;0.22;;
1753;SDS011;58380;48.312;9.246;2023-11-19T14:11:19;2.53;;;0.50;;
1753;SDS011;58380;48.312;9.246;2023-11-19T14:14:20;0.85;;;0.40;;
1753;SDS011;58380;48.312;9.246;2023-11-19T14:17:20;0.70;;;0.30;;
1753;SDS011;58380;48.312;9.246;2023-11-19T14:20:21;0.88;;;0.45;;
1753;SDS011;58380;48.312;9.246;2023-11-19T14:23:21;0.20;;;0.20;;
1753;SDS011;58380;48.312;9.246;2023-11-19T14:26:22;0.35;;;0.10;;
1753;SDS011;58380;48.312;9.246;2023-11-19T14:29:22;0.30;;;0.20;;
1753;SDS011;58380;48.312;9.246;2023-11-19T14:32:22;0.93;;;0.40;;
1753;SDS011;58380;48.312;9.246;2023-11-19T14:35:23;1.20;;;0.13;;
1753;SDS011;58380;48.312;9.246;2023-11-19T14:38:25;0.75;;;0.32;;
1753;SDS011;58380;48.312;9.246;2023-11-19T14:41:25;0.98;;;0.50;;
1753;SDS011;58380;48.312;9.246;2023-11-19T14:44:25;1.23;;;0.82;;
1753;SDS011;58380;48.312;9.246;2023-11-19T14:47:27;0.57;;;0.40;;
1753;SDS011;58380;48.312;9.246;2023-11-19T14:50:27;0.30;;;0.10;;
1753;SDS011;58380;48.312;9.246;2023-11-19T14:53:28;1.00;;;0.40;;
1753;SDS011;58380;48.312;9.246;2023-11-19T14:56:28;0.70;;;0.40;;
1753;SDS011;58380;48.312;9.246;2023-11-19T14:59:28;2.05;;;0.40;;
1753;SDS011;58380;48.312;9.246;2023-11-19T15:02:29;1.88;;;0.90;;
1753;SDS011;58380;48.312;9.246;2023-11-19T15:05:29;2.15;;;1.15;;
1753;SDS011;58380;48.312;9.246;2023-11-19T15:08:30;7.93;;;4.00;;
1753;SDS011;58380;48.312;9.246;2023-11-19T15:11:30;10.63;;;4.28;;
1753;SDS011;58380;48.312;9.246;2023-11-19T15:14:31;3.85;;;1.45;;
1753;SDS011;58380;48.312;9.246;2023-11-19T15:17:31;1.52;;;0.55;;
1753;SDS011;58380;48.312;9.246;2023-11-19T15:20:32;2.72;;;1.25;;
1753;SDS011;58380;48.312;9.246;2023-11-19T15:23:32;1.80;;;0.88;;
1753;SDS011;58380;48.312;9.246;2023-11-19T15:26:33;3.30;;;1.33;;
1753;SDS011;58380;48.312;9.246;2023-11-19T15:29:35;2.72;;;0.80;;
1753;SDS011;58380;48.312;9.246;2023-11-19T15:32:35;1.30;;;0.68;;
1753;SDS011;58380;48.312;9.246;2023-11-19T15:35:36;2.15;;;1.00;;
1753;SDS011;58380;48.312;9.246;2023-11-19T15:38:36;2.17;;;0.77;;
1753;SDS011;58380;48.312;9.246;2023-11-19T15:41:37;1.50;;;0.60;;
1753;SDS011;58380;48.312;9.246;2023-11-19T15:44:37;2.40;;;0.90;;
1753;SDS011;58380;48.312;9.246;2023-11-19T15:47:38;1.77;;;1.02;;
1753;SDS011;58380;48.312;9.246;2023-11-19T15:50:39;0.40;;;0.30;;
1753;SDS011;58380;48.312;9.246;2023-11-19T15:53:40;1.25;;;0.50;;
1753;SDS011;58380;48.312;9.246;2023-11-19T15:56:40;6.47;;;2.17;;
1753;SDS011;58380;48.312;9.246;2023-11-19T15:59:41;8.57;;;3.58;;
1753;SDS011;58380;48.312;9.246;2023-11-19T16:02:41;8.50;;;3.38;;
1753;SDS011;58380;48.312;9.246;2023-11-19T16:05:42;9.18;;;3.35;;
1753;SDS011;58380;48.312;9.246;2023-11-19T16:08:42;2.22;;;1.30;;
1753;SDS011;58380;48.312;9.246;2023-11-19T16:11:43;2.65;;;1.10;;
1753;SDS011;58380;48.312;9.246;2023-11-19T16:14:43;3.88;;;1.80;;
1753;SDS011;58380;48.312;9.246;2023-11-19T16:17:44;1.85;;;1.00;;
1753;SDS011;58380;48.312;9.246;2023-11-19T16:20:44;3.63;;;0.93;;
1753;SDS011;58380;48.312;9.246;2023-11-19T16:23:45;2.08;;;1.17;;
1753;SDS011;58380;48.312;9.246;2023-11-19T16:26:45;2.10;;;0.70;;
1753;SDS011;58380;48.312;9.246;2023-11-19T16:29:48;0.90;;;0.50;;
1753;SDS011;58380;48.312;9.246;2023-11-19T16:33:06;3.13;;;0.85;;
1753;SDS011;58380;48.312;9.246;2023-11-19T16:36:08;3.47;;;1.38;;
1753;SDS011;58380;48.312;9.246;2023-11-19T16:39:13;2.13;;;0.98;;
1753;SDS011;58380;48.312;9.246;2023-11-19T16:42:14;2.75;;;0.93;;
1753;SDS011;58380;48.312;9.246;2023-11-19T16:45:15;4.50;;;1.52;;
1753;SDS011;58380;48.312;9.246;2023-11-19T16:48:15;5.53;;;2.28;;
1753;SDS011;58380;48.312;9.246;2023-11-19T16:51:17;3.65;;;1.55;;
1753;SDS011;58380;48.312;9.246;2023-11-19T16:54:17;3.25;;;1.20;;
1753;SDS011;58380;48.312;9.246;2023-11-19T16:57:18;3.90;;;2.08;;
1753;SDS011;58380;48.312;9.246;2023-11-19T17:00:20;5.03;;;2.40;;
1753;SDS011;58380;48.312;9.246;2023-11-19T17:03:21;6.65;;;3.03;;
1753;SDS011;58380;48.312;9.246;2023-11-19T17:06:21;2.67;;;1.00;;
1753;SDS011;58380;48.312;9.246;2023-11-19T17:09:23;4.43;;;1.33;;
1753;SDS011;58380;48.312;9.246;2023-11-19T17:12:23;3.70;;;1.65;;
1753;SDS011;58380;48.312;9.246;2023-11-19T17:15:24;5.50;;;2.17;;
1753;SDS011;58380;48.312;9.246;2023-11-19T17:18:24;3.65;;;1.67;;
1753;SDS011;58380;48.312;9.246;2023-11-19T17:21:25;6.40;;;2.30;;
1753;SDS011;58380;48.312;9.246;2023-11-19T17:24:25;2.03;;;0.80;;
1753;SDS011;58380;48.312;9.246;2023-11-19T17:27:26;5.25;;;1.67;;
1753;SDS011;58380;48.312;9.246;2023-11-19T17:30:27;3.72;;;1.63;;
1753;SDS011;58380;48.312;9.246;2023-11-19T17:33:28;2.25;;;1.33;;
1753;SDS011;58380;48.312;9.246;2023-11-19T17:36:28;2.45;;;1.20;;
1753;SDS011;58380;48.312;9.246;2023-11-19T17:39:30;3.83;;;1.95;;
1753;SDS011;58380;48.312;9.246;2023-11-19T17:42:31;2.25;;;1.10;;
1753;SDS011;58380;48.312;9.246;2023-11-19T17:45:31;15.35;;;8.50;;
1753;SDS011;58380;48.312;9.246;2023-11-19T17:48:32;13.98;;;7.25;;
1753;SDS011;58380;48.312;9.246;2023-11-19T17:51:32;13.80;;;5.65;;
1753;SDS011;58380;48.312;9.246;2023-11-19T17:54:33;11.88;;;6.13;;
1753;SDS011;58380;48.312;9.246;2023-11-19T17:57:33;9.52;;;5.28;;
1753;SDS011;58380;48.312;9.246;2023-11-19T18:00:34;4.53;;;2.25;;
1753;SDS011;58380;48.312;9.246;2023-11-19T18:03:34;8.45;;;3.63;;
1753;SDS011;58380;48.312;9.246;2023-11-19T18:06:35;4.78;;;2.60;;
1753;SDS011;58380;48.312;9.246;2023-11-19T18:09:37;5.30;;;2.72;;
1753;SDS011;58380;48.312;9.246;2023-11-19T18:12:38;7.75;;;3.15;;
1753;SDS011;58380;48.312;9.246;2023-11-19T18:15:39;6.68;;;3.25;;
1753;SDS011;58380;48.312;9.246;2023-11-19T18:18:39;3.85;;;1.80;;
1753;SDS011;58380;48.312;9.246;2023-11-19T18:21:39;4.72;;;2.40;;
1753;SDS011;58380;48.312;9.246;2023-11-19T18:24:40;2.58;;;1.40;;
1753;SDS011;58380;48.312;9.246;2023-11-19T18:27:40;3.88;;;1.08;;
1753;SDS011;58380;48.312;9.246;2023-11-19T18:30:42;1.48;;;0.90;;
1753;SDS011;58380;48.312;9.246;2023-11-19T18:33:42;2.72;;;1.15;;
1753;SDS011;58380;48.312;9.246;2023-11-19T18:36:43;4.25;;;1.80;;
1753;SDS011;58380;48.312;9.246;2023-11-19T18:39:44;4.63;;;1.90;;
1753;SDS011;58380;48.312;9.246;2023-11-19T18:42:44;4.57;;;1.83;;
1753;SDS011;58380;48.312;9.246;2023-11-19T18:45:44;6.15;;;1.65;;
1753;SDS011;58380;48.312;9.246;2023-11-19T18:48:45;4.63;;;1.90;;
1753;SDS011;58380;48.312;9.246;2023-11-19T18:51:45;4.50;;;1.48;;
1753;SDS011;58380;48.312;9.246;2023-11-19T18:54:46;1.85;;;0.82;;
1753;SDS011;58380;48.312;9.246;2023-11-19T18:57:46;6.35;;;2.25;;
1753;SDS011;58380;48.312;9.246;2023-11-19T19:00:48;5.90;;;1.92;;
1753;SDS011;58380;48.312;9.246;2023-11-19T19:03:50;3.13;;;1.35;;
1753;SDS011;58380;48.312;9.246;2023-11-19T19:06:50;4.03;;;1.00;;
1753;SDS011;58380;48.312;9.246;2023-11-19T19:09:52;2.30;;;0.90;;
1753;SDS011;58380;48.312;9.246;2023-11-19T19:12:54;1.35;;;0.77;;
1753;SDS011;58380;48.312;9.246;2023-11-19T19:15:55;1.35;;;0.60;;
1753;SDS011;58380;48.312;9.246;2023-11-19T19:18:56;1.83;;;1.08;;
1753;SDS011;58380;48.312;9.246;2023-11-19T19:21:56;1.67;;;0.80;;
1753;SDS011;58380;48.312;9.246;2023-11-19T19:24:57;2.22;;;0.80;;
1753;SDS011;58380;48.312;9.246;2023-11-19T19:27:58;1.95;;;0.75;;
1753;SDS011;58380;48.312;9.246;2023-11-19T19:30:58;1.73;;;0.80;;
1753;SDS011;58380;48.312;9.246;2023-11-19T19:33:59;1.88;;;1.05;;
1753;SDS011;58380;48.312;9.246;2023-11-19T19:37:00;2.15;;;1.13;;
1753;SDS011;58380;48.312;9.246;2023-11-19T19:40:01;3.65;;;1.00;;
1753;SDS011;58380;48.312;9.246;2023-11-19T19:43:03;1.05;;;0.60;;
1753;SDS011;58380;48.312;9.246;2023-11-19T19:46:04;1.08;;;0.70;;
1753;SDS011;58380;48.312;9.246;2023-11-19T19:49:05;1.52;;;0.63;;
1753;SDS011;58380;48.312;9.246;2023-11-19T19:52:08;2.17;;;0.80;;
1753;SDS011;58380;48.312;9.246;2023-11-19T19:55:08;3.72;;;0.80;;
1753;SDS011;58380;48.312;9.246;2023-11-19T19:58:09;1.42;;;0.60;;
1753;SDS011;58380;48.312;9.246;2023-11-19T20:01:11;1.80;;;0.80;;
1753;SDS011;58380;48.312;9.246;2023-11-19T20:04:12;1.15;;;0.63;;
1753;SDS011;58380;48.312;9.246;2023-11-19T20:07:12;1.83;;;0.60;;
1753;SDS011;58380;48.312;9.246;2023-11-19T20:10:13;2.28;;;0.70;;
1753;SDS011;58380;48.312;9.246;2023-11-19T20:13:14;2.08;;;0.50;;
1753;SDS011;58380;48.312;9.246;2023-11-19T20:16:14;2.22;;;0.80;;
1753;SDS011;58380;48.312;9.246;2023-11-19T20:19:15;2.38;;;0.98;;
1753;SDS011;58380;48.312;9.246;2023-11-19T20:22:15;2.05;;;0.70;;
1753;SDS011;58380;48.312;9.246;2023-11-19T20:25:16;3.72;;;1.02;;
1753;SDS011;58380;48.312;9.246;2023-11-19T20:28:16;4.53;;;1.52;;
1753;SDS011;58380;48.312;9.246;2023-11-19T20:31:17;2.05;;;0.90;;
1753;SDS011;58380;48.312;9.246;2023-11-19T20:34:18;2.08;;;0.90;;
1753;SDS011;58380;48.312;9.246;2023-11-19T20:37:18;2.22;;;0.73;;
1753;SDS011;58380;48.312;9.246;2023-11-19T20:40:19;1.48;;;0.70;;
1753;SDS011;58380;48.312;9.246;2023-11-19T20:43:20;1.48;;;0.57;;
1753;SDS011;58380;48.312;9.246;2023-11-19T20:46:21;2.45;;;0.88;;
1753;SDS011;58380;48.312;9.246;2023-11-19T20:49:23;1.50;;;0.95;;
1753;SDS011;58380;48.312;9.246;2023-11-19T20:52:23;2.90;;;0.88;;
1753;SDS011;58380;48.312;9.246;2023-11-19T20:55:24;2.92;;;1.00;;
1753;SDS011;58380;48.312;9.246;2023-11-19T20:58:25;1.92;;;0.93;;
1753;SDS011;58380;48.312;9.246;2023-11-19T21:01:26;4.65;;;1.30;;
1753;SDS011;58380;48.312;9.246;2023-11-19T21:04:26;5.65;;;1.65;;
1753;SDS011;58380;48.312;9.246;2023-11-19T21:07:27;3.20;;;1.55;;
1753;SDS011;58380;48.312;9.246;2023-11-19T21:10:27;3.65;;;1.83;;
1753;SDS011;58380;48.312;9.246;2023-11-19T21:13:28;5.47;;;2.08;;
1753;SDS011;58380;48.312;9.246;2023-11-19T21:16:28;4.90;;;2.05;;
1753;SDS011;58380;48.312;9.246;2023-11-19T21:19:29;5.28;;;2.35;;
1753;SDS011;58380;48.312;9.246;2023-11-19T21:22:30;8.65;;;2.90;;
1753;SDS011;58380;48.312;9.246;2023-11-19T21:25:30;2.53;;;1.05;;
1753;SDS011;58380;48.312;9.246;2023-11-19T21:28:32;3.25;;;1.45;;
1753;SDS011;58380;48.312;9.246;2023-11-19T21:31:34;2.95;;;1.42;;
1753;SDS011;58380;48.312;9.246;2023-11-19T21:34:35;3.53;;;1.90;;
1753;SDS011;58380;48.312;9.246;2023-11-19T21:37:35;2.33;;;1.48;;
1753;SDS011;58380;48.312;9.246;2023-11-19T21:40:36;2.90;;;1.90;;
1753;SDS011;58380;48.312;9.246;2023-11-19T21:43:36;2.35;;;1.52;;
1753;SDS011;58380;48.312;9.246;2023-11-19T21:46:36;4.55;;;1.77;;
1753;SDS011;58380;48.312;9.246;2023-11-19T21:49:37;4.07;;;2.00;;
1753;SDS011;58380;48.312;9.246;2023-11-19T21:52:40;4.25;;;2.80;;
1753;SDS011;58380;48.312;9.246;2023-11-19T21:55:40;5.80;;;3.50;;
1753;SDS011;58380;48.312;9.246;2023-11-19T21:58:42;5.00;;;2.90;;
1753;SDS011;58380;48.312;9.246;2023-11-19T22:01:43;4.35;;;2.30;;
1753;SDS011;58380;48.312;9.246;2023-11-19T22:04:44;7.93;;;3.55;;
